createdAt,value
2023-02-19T00:01:28.677Z,4.10
2023-02-19T00:03:58.732Z,4.70
2023-02-19T00:06:26.726Z,4.80
2023-02-19T00:08:56.730Z,4.50
2023-02-19T00:11:25.345Z,4.90
2023-02-19T00:13:53.069Z,4.30
2023-02-19T00:16:23.379Z,4.00
2023-02-19T00:18:50.212Z,4.20
2023-02-19T00:21:17.905Z,4.20
2023-02-19T00:23:50.105Z,3.50
2023-02-19T00:26:18.802Z,3.70
2023-02-19T00:28:47.381Z,4.00
2023-02-19T00:31:18.475Z,3.30
2023-02-19T00:33:46.442Z,3.30
2023-02-19T00:36:13.595Z,3.70
2023-02-19T00:38:41.625Z,3.20
2023-02-19T00:41:21.278Z,3.60
2023-02-19T00:43:49.834Z,3.60
2023-02-19T00:46:18.129Z,3.60
2023-02-19T00:48:46.180Z,3.70
2023-02-19T00:51:13.440Z,3.70
2023-02-19T00:53:43.370Z,3.50
2023-02-19T00:56:10.150Z,3.70
2023-02-19T00:58:36.820Z,3.20
2023-02-19T01:01:05.808Z,3.90
2023-02-19T01:03:36.140Z,3.70
2023-02-19T01:06:04.083Z,3.40
2023-02-19T01:08:31.616Z,3.80
2023-02-19T01:13:30.993Z,4.00
2023-02-19T01:16:08.178Z,4.30
2023-02-19T01:18:35.683Z,3.90
2023-02-19T01:21:07.350Z,3.20
2023-02-19T01:23:36.514Z,3.70
2023-02-19T01:26:07.867Z,3.80
2023-02-19T01:28:35.129Z,3.50
2023-02-19T01:31:04.105Z,3.90
2023-02-19T01:33:32.119Z,3.80
2023-02-19T01:35:58.875Z,3.80
2023-02-19T01:38:26.257Z,4.70
2023-02-19T01:40:57.619Z,3.30
2023-02-19T01:43:24.842Z,4.00
2023-02-19T01:45:53.064Z,3.90
2023-02-19T01:48:25.519Z,3.70
2023-02-19T01:50:58.466Z,3.50
2023-02-19T01:53:27.787Z,2.40
2023-02-19T01:55:55.888Z,3.40
2023-02-19T01:58:24.167Z,3.80
2023-02-19T02:00:51.536Z,3.60
2023-02-19T02:03:20.026Z,3.30
2023-02-19T02:06:06.848Z,3.90
2023-02-19T02:08:52.508Z,3.80
2023-02-19T02:11:21.259Z,3.90
2023-02-19T02:13:49.252Z,4.60
2023-02-19T02:16:23.554Z,4.00
2023-02-19T02:18:57.204Z,5.00
2023-02-19T02:21:47.355Z,4.90
2023-02-19T02:24:52.394Z,5.30
2023-02-19T02:27:37.995Z,4.70
2023-02-19T02:30:07.180Z,4.90
2023-02-19T02:32:38.606Z,4.20
2023-02-19T02:35:10.941Z,4.40
2023-02-19T02:37:40.400Z,3.70
2023-02-19T02:40:08.058Z,4.80
2023-02-19T02:42:42.092Z,4.00
2023-02-19T02:45:36.084Z,3.60
2023-02-19T02:48:29.671Z,3.90
2023-02-19T02:51:16.002Z,4.50
2023-02-19T02:54:09.776Z,3.80
2023-02-19T02:56:37.636Z,4.10
2023-02-19T02:59:05.801Z,3.50
2023-02-19T03:02:13.431Z,3.90
2023-02-19T03:05:05.443Z,4.40
2023-02-19T03:07:41.051Z,3.80
2023-02-19T03:10:09.644Z,3.50
2023-02-19T03:12:56.148Z,3.60
2023-02-19T03:15:41.610Z,3.80
2023-02-19T03:18:27.032Z,4.10
2023-02-19T03:20:56.023Z,4.10
2023-02-19T03:23:46.029Z,4.20
2023-02-19T03:26:13.254Z,3.70
2023-02-19T03:29:03.893Z,3.80
2023-02-19T03:31:32.751Z,4.30
2023-02-19T03:34:03.434Z,4.00
2023-02-19T03:36:41.873Z,3.90
2023-02-19T03:39:09.086Z,4.80
2023-02-19T03:41:45.170Z,4.30
2023-02-19T03:44:49.961Z,3.80
2023-02-19T03:47:24.799Z,4.10
2023-02-19T03:50:19.657Z,4.10
2023-02-19T03:53:05.962Z,4.00
2023-02-19T03:55:52.442Z,4.40
2023-02-19T03:58:27.901Z,4.20
2023-02-19T04:00:58.086Z,4.30
2023-02-19T04:03:43.402Z,4.60
2023-02-19T04:06:13.512Z,4.10
2023-02-19T04:08:43.343Z,4.30
2023-02-19T04:11:10.520Z,4.90
2023-02-19T04:14:04.233Z,4.40
2023-02-19T04:16:31.139Z,4.10
2023-02-19T04:19:05.624Z,4.90
2023-02-19T04:21:33.060Z,5.00
2023-02-19T04:24:13.240Z,4.80
2023-02-19T04:26:40.327Z,4.80
2023-02-19T04:29:06.950Z,5.00
2023-02-19T04:31:35.311Z,5.30
2023-02-19T04:34:03.390Z,5.00
2023-02-19T04:36:32.178Z,5.60
2023-02-19T04:38:58.876Z,5.10
2023-02-19T04:41:26.155Z,5.50
2023-02-19T04:43:52.843Z,5.40
2023-02-19T04:46:20.362Z,5.60
2023-02-19T04:48:47.399Z,4.90
2023-02-19T04:51:14.022Z,4.60
2023-02-19T04:53:42.300Z,4.70
2023-02-19T04:56:13.754Z,4.70
2023-02-19T04:58:40.722Z,4.10
2023-02-19T05:01:08.718Z,4.00
2023-02-19T05:03:36.581Z,4.10
2023-02-19T05:06:04.656Z,4.00
2023-02-19T05:08:31.599Z,3.30
2023-02-19T05:11:00.446Z,4.10
2023-02-19T05:13:30.182Z,3.30
2023-02-19T05:16:02.779Z,3.50
2023-02-19T05:18:30.106Z,4.40
2023-02-19T05:20:57.301Z,3.20
2023-02-19T05:23:24.007Z,3.40
2023-02-19T05:25:50.817Z,4.10
2023-02-19T05:28:18.014Z,3.90
2023-02-19T05:30:51.464Z,3.30
2023-02-19T05:33:19.554Z,4.40
2023-02-19T05:35:51.848Z,3.80
2023-02-19T05:38:18.798Z,3.30
2023-02-19T05:40:45.745Z,3.90
2023-02-19T05:43:13.245Z,3.60
2023-02-19T05:45:42.398Z,4.00
2023-02-19T05:48:10.205Z,3.70
2023-02-19T05:50:39.451Z,3.80
2023-02-19T05:53:12.820Z,3.50
2023-02-19T05:55:39.524Z,4.30
2023-02-19T05:58:06.125Z,3.50
2023-02-19T06:00:33.316Z,4.10
2023-02-19T06:03:00.993Z,4.00
2023-02-19T06:05:27.860Z,3.80
2023-02-19T06:07:54.744Z,3.90
2023-02-19T06:10:22.229Z,3.60
2023-02-19T06:12:52.738Z,3.70
2023-02-19T06:15:20.542Z,3.70
2023-02-19T06:17:47.884Z,3.60
2023-02-19T06:20:14.879Z,4.00
2023-02-19T06:22:43.015Z,4.20
2023-02-19T06:25:12.349Z,4.30
2023-02-19T06:27:40.072Z,4.20
2023-02-19T06:30:08.556Z,4.70
2023-02-19T06:32:36.021Z,4.40
2023-02-19T06:35:03.393Z,4.60
2023-02-19T06:37:30.498Z,4.70
2023-02-19T06:39:57.342Z,4.40
2023-02-19T06:42:24.288Z,4.40
2023-02-19T06:44:51.131Z,4.10
2023-02-19T06:47:17.973Z,3.70
2023-02-19T06:49:44.760Z,3.90
2023-02-19T06:52:11.692Z,4.20
2023-02-19T06:54:38.816Z,4.30
2023-02-19T06:57:05.646Z,4.10
2023-02-19T06:59:32.344Z,4.60
2023-02-19T07:01:59.091Z,5.00
2023-02-19T07:04:25.796Z,4.50
2023-02-19T07:06:52.907Z,4.20
2023-02-19T07:09:19.750Z,4.50
2023-02-19T07:11:46.698Z,4.60
2023-02-19T07:14:17.190Z,4.80
2023-02-19T07:16:46.702Z,4.60
2023-02-19T07:19:14.422Z,4.30
2023-02-19T07:21:41.807Z,4.80
2023-02-19T07:24:09.338Z,4.40
2023-02-19T07:26:36.875Z,4.70
2023-02-19T07:29:04.454Z,4.50
2023-02-19T07:31:31.170Z,4.90
2023-02-19T07:33:57.927Z,4.20
2023-02-19T07:36:25.274Z,4.70
2023-02-19T07:38:56.078Z,4.40
2023-02-19T07:41:23.898Z,4.10
2023-02-19T07:43:51.364Z,4.10
2023-02-19T07:46:18.388Z,4.30
2023-02-19T07:48:50.022Z,3.90
2023-02-19T07:51:18.979Z,4.80
2023-02-19T07:53:46.381Z,4.60
2023-02-19T07:56:13.245Z,4.40
2023-02-19T07:58:40.028Z,3.90
2023-02-19T08:01:09.331Z,4.30
2023-02-19T08:03:37.145Z,3.70
2023-02-19T08:06:04.516Z,3.80
2023-02-19T08:08:31.442Z,3.90
2023-02-19T08:11:19.103Z,3.40
2023-02-19T08:13:48.991Z,3.50
2023-02-19T08:16:24.180Z,3.70
2023-02-19T08:18:59.061Z,3.40
2023-02-19T08:21:27.156Z,3.60
2023-02-19T08:23:54.042Z,3.60
2023-02-19T08:26:20.969Z,3.60
2023-02-19T08:28:48.135Z,3.20
2023-02-19T08:31:15.208Z,2.80
2023-02-19T08:33:42.521Z,3.10
2023-02-19T08:36:10.354Z,3.10
2023-02-19T08:38:38.050Z,3.80
2023-02-19T08:41:10.283Z,3.40
2023-02-19T08:46:05.918Z,3.20
2023-02-19T08:48:33.414Z,2.90
2023-02-19T08:51:03.403Z,2.70
2023-02-19T08:53:31.122Z,3.10
2023-02-19T08:55:57.976Z,3.10
2023-02-19T08:58:27.590Z,3.10
2023-02-19T09:00:54.508Z,3.00
2023-02-19T09:03:22.022Z,3.50
2023-02-19T09:05:49.108Z,3.20
2023-02-19T09:08:25.154Z,2.80
2023-02-19T09:11:02.803Z,2.90
2023-02-19T09:13:30.452Z,3.10
2023-02-19T09:15:57.297Z,2.70
2023-02-19T09:18:25.034Z,2.90
2023-02-19T09:20:52.177Z,3.00
2023-02-19T09:23:19.277Z,2.90
2023-02-19T09:25:46.005Z,3.10
2023-02-19T09:28:12.904Z,3.20
2023-02-19T09:30:39.786Z,2.70
2023-02-19T09:33:06.602Z,2.80
2023-02-19T09:35:33.470Z,3.10
2023-02-19T09:38:02.866Z,3.20
2023-02-19T09:40:29.974Z,3.30
2023-02-19T09:43:00.909Z,3.30
2023-02-19T09:45:28.657Z,3.10
2023-02-19T09:47:56.674Z,2.90
2023-02-19T09:50:31.458Z,2.90
2023-02-19T09:53:00.803Z,2.70
2023-02-19T09:55:37.360Z,3.40
2023-02-19T09:58:31.682Z,2.70
2023-02-19T10:01:00.123Z,3.10
2023-02-19T10:03:38.568Z,3.10
2023-02-19T10:06:26.175Z,2.70
2023-02-19T10:09:15.123Z,3.20
2023-02-19T10:11:42.768Z,2.70
2023-02-19T10:14:35.247Z,3.10
2023-02-19T10:17:03.797Z,3.20
2023-02-19T10:19:35.008Z,3.00
2023-02-19T10:22:02.164Z,3.20
2023-02-19T10:24:29.956Z,2.60
2023-02-19T10:26:56.754Z,2.60
2023-02-19T10:29:24.281Z,2.50
2023-02-19T10:32:11.724Z,2.90
2023-02-19T10:34:38.985Z,3.00
2023-02-19T10:37:07.967Z,3.30
2023-02-19T10:39:43.246Z,2.90
2023-02-19T10:42:17.423Z,2.90
2023-02-19T10:44:46.016Z,2.70
2023-02-19T10:47:21.252Z,2.50
2023-02-19T10:49:52.507Z,2.70
2023-02-19T10:52:22.720Z,3.00
2023-02-19T10:54:51.799Z,3.00
2023-02-19T10:57:18.431Z,3.20
2023-02-19T10:59:52.913Z,2.50
2023-02-19T11:02:20.772Z,2.90
2023-02-19T11:05:01.637Z,3.10
2023-02-19T11:07:28.621Z,2.70
2023-02-19T11:09:55.641Z,2.70
2023-02-19T11:12:29.451Z,2.70
2023-02-19T11:15:19.284Z,2.50
2023-02-19T11:17:46.056Z,2.60
2023-02-19T11:20:14.942Z,2.80
2023-02-19T11:22:41.815Z,3.00
2023-02-19T11:25:14.565Z,2.70
2023-02-19T11:28:03.486Z,3.10
2023-02-19T11:30:35.581Z,2.60
2023-02-19T11:33:15.336Z,2.90
2023-02-19T11:35:46.541Z,3.20
2023-02-19T11:41:22.494Z,3.20
2023-02-19T11:43:55.130Z,2.90
2023-02-19T11:46:37.349Z,3.30
2023-02-19T11:49:13.514Z,2.90
2023-02-19T11:52:02.125Z,3.00
2023-02-19T11:54:39.388Z,3.00
2023-02-19T11:57:09.618Z,2.80
2023-02-19T11:59:50.164Z,2.80
2023-02-19T12:02:53.594Z,2.60
2023-02-19T12:05:26.274Z,2.60
2023-02-19T12:08:09.913Z,2.60
2023-02-19T12:11:03.834Z,2.50
2023-02-19T12:13:54.745Z,2.30
2023-02-19T12:16:23.267Z,2.20
2023-02-19T12:18:56.775Z,2.10
2023-02-19T12:21:44.917Z,2.10
2023-02-19T12:24:46.298Z,2.40
2023-02-19T12:27:22.257Z,2.20
2023-02-19T12:29:55.257Z,2.30
2023-02-19T12:32:31.395Z,2.10
2023-02-19T12:35:07.541Z,2.80
2023-02-19T12:37:59.911Z,2.40
2023-02-19T12:40:49.774Z,2.40
2023-02-19T12:43:18.156Z,2.40
2023-02-19T12:45:51.766Z,2.80
2023-02-19T12:48:43.392Z,2.60
2023-02-19T12:51:23.638Z,2.80
2023-02-19T12:54:00.964Z,2.60
2023-02-19T12:56:31.464Z,2.50
2023-02-19T12:59:04.798Z,2.50
2023-02-19T13:01:41.159Z,2.90
2023-02-19T13:04:35.777Z,2.40
2023-02-19T13:07:09.069Z,2.70
2023-02-19T13:09:39.488Z,3.10
2023-02-19T13:12:14.707Z,2.60
2023-02-19T13:14:46.044Z,2.60
2023-02-19T13:17:19.823Z,2.70
2023-02-19T13:19:51.540Z,2.70
2023-02-19T13:22:52.214Z,2.50
2023-02-19T13:25:21.246Z,2.80
2023-02-19T13:28:23.697Z,3.00
2023-02-19T13:30:59.993Z,2.80
2023-02-19T13:34:02.428Z,2.40
2023-02-19T13:36:29.558Z,2.90
2023-02-19T13:38:59.412Z,2.70
2023-02-19T13:41:27.263Z,2.80
2023-02-19T13:43:55.926Z,3.10
2023-02-19T13:46:22.604Z,3.40
2023-02-19T13:48:49.541Z,2.60
2023-02-19T13:51:20.946Z,3.30
2023-02-19T13:53:51.169Z,3.00
2023-02-19T13:56:33.601Z,2.90
2023-02-19T13:59:10.477Z,3.00
2023-02-19T14:01:49.576Z,3.00
2023-02-19T14:05:02.020Z,3.00
2023-02-19T14:07:51.475Z,2.80
2023-02-19T14:10:49.570Z,2.90
2023-02-19T14:13:54.733Z,3.00
2023-02-19T14:16:27.648Z,3.10
2023-02-19T14:18:55.691Z,2.90
2023-02-19T14:21:27.537Z,3.10
2023-02-19T14:23:55.897Z,3.50
2023-02-19T14:26:24.648Z,3.50
2023-02-19T14:28:51.536Z,3.10
2023-02-19T14:31:26.435Z,3.50
2023-02-19T14:34:26.702Z,3.00
2023-02-19T14:37:01.269Z,2.80
2023-02-19T14:39:32.926Z,2.70
2023-02-19T14:42:01.334Z,3.20
2023-02-19T14:44:36.709Z,2.90
2023-02-19T14:47:08.496Z,3.60
2023-02-19T14:49:45.247Z,2.60
2023-02-19T14:52:16.635Z,3.00
2023-02-19T14:55:12.170Z,2.90
2023-02-19T14:57:40.648Z,2.70
2023-02-19T15:00:25.879Z,2.90
2023-02-19T15:02:59.039Z,3.10
2023-02-19T15:05:27.462Z,2.90
2023-02-19T15:08:16.291Z,3.10
2023-02-19T15:10:45.317Z,3.50
2023-02-19T15:13:18.175Z,2.90
2023-02-19T15:15:45.860Z,2.80
2023-02-19T15:18:21.014Z,2.70
2023-02-19T15:20:47.752Z,2.70
2023-02-19T15:23:21.527Z,2.70
2023-02-19T15:25:50.286Z,2.90
2023-02-19T15:28:23.318Z,3.00
2023-02-19T15:31:06.845Z,2.80
2023-02-19T15:33:34.890Z,2.80
2023-02-19T15:36:06.391Z,2.70
2023-02-19T15:38:33.464Z,3.30
2023-02-19T15:41:01.148Z,3.20
2023-02-19T15:43:33.331Z,3.10
2023-02-19T15:46:06.478Z,3.60
2023-02-19T15:48:39.076Z,3.60
2023-02-19T15:51:09.116Z,3.20
2023-02-19T15:53:45.564Z,3.20
2023-02-19T15:56:27.710Z,2.80
2023-02-19T15:59:03.727Z,3.00
2023-02-19T16:01:37.222Z,3.00
2023-02-19T16:04:08.241Z,2.90
2023-02-19T16:06:52.265Z,3.10
2023-02-19T16:09:20.827Z,3.70
2023-02-19T16:11:50.664Z,3.40
2023-02-19T16:14:28.353Z,3.20
2023-02-19T16:16:57.847Z,2.90
2023-02-19T16:19:29.695Z,3.50
2023-02-19T16:21:56.744Z,4.00
2023-02-19T16:24:28.112Z,3.70
2023-02-19T16:29:29.031Z,3.20
2023-02-19T16:32:06.276Z,3.20
2023-02-19T16:34:39.321Z,2.90
2023-02-19T16:37:38.462Z,3.40
2023-02-19T16:40:08.419Z,3.70
2023-02-19T16:42:35.721Z,3.90
2023-02-19T16:45:02.369Z,4.00
2023-02-19T16:47:32.878Z,3.90
2023-02-19T16:50:01.087Z,3.80
2023-02-19T16:52:28.119Z,3.70
2023-02-19T16:54:54.765Z,3.60
2023-02-19T16:57:21.703Z,3.90
2023-02-19T16:59:48.609Z,3.50
2023-02-19T17:02:18.118Z,3.20
2023-02-19T17:04:45.648Z,4.30
2023-02-19T17:07:17.134Z,3.60
2023-02-19T17:09:43.938Z,3.60
2023-02-19T17:12:12.668Z,3.90
2023-02-19T17:14:39.380Z,4.20
2023-02-19T17:17:06.400Z,4.00
2023-02-19T17:19:33.315Z,4.30
2023-02-19T17:22:00.078Z,3.90
2023-02-19T17:24:26.766Z,4.20
2023-02-19T17:26:57.442Z,4.60
2023-02-19T17:29:25.679Z,4.30
2023-02-19T17:31:52.764Z,4.90
2023-02-19T17:34:19.689Z,4.50
2023-02-19T17:36:47.558Z,4.90
2023-02-19T17:39:14.627Z,4.50
2023-02-19T17:41:41.702Z,4.90
2023-02-19T17:44:08.849Z,5.20
2023-02-19T17:46:36.492Z,4.30
2023-02-19T17:49:03.412Z,4.30
2023-02-19T17:51:31.470Z,4.30
2023-02-19T17:53:58.087Z,4.50
2023-02-19T17:56:25.963Z,3.80
2023-02-19T17:58:54.127Z,3.70
2023-02-19T18:01:21.253Z,3.70
2023-02-19T18:03:48.982Z,3.40
2023-02-19T18:06:16.017Z,3.20
2023-02-19T18:08:50.583Z,3.50
2023-02-19T18:11:17.553Z,3.70
2023-02-19T18:13:45.471Z,3.60
2023-02-19T18:16:14.969Z,3.60
2023-02-19T18:18:42.367Z,3.30
2023-02-19T18:21:09.522Z,3.60
2023-02-19T18:23:37.812Z,3.50
2023-02-19T18:26:08.007Z,3.50
2023-02-19T18:28:35.189Z,3.50
2023-02-19T18:31:02.140Z,3.60
2023-02-19T18:33:29.354Z,4.80
2023-02-19T18:35:56.488Z,3.40
2023-02-19T18:38:24.714Z,5.00
2023-02-19T18:40:51.583Z,3.90
2023-02-19T18:43:18.883Z,3.80
2023-02-19T18:45:46.307Z,3.90
2023-02-19T18:48:13.346Z,4.50
2023-02-19T18:50:40.108Z,4.40
2023-02-19T18:53:09.230Z,3.80
2023-02-19T18:55:36.427Z,3.50
2023-02-19T18:58:03.105Z,4.00
2023-02-19T19:00:30.347Z,3.60
2023-02-19T19:02:57.679Z,3.60
2023-02-19T19:05:24.895Z,3.30
2023-02-19T19:07:53.463Z,3.50
2023-02-19T19:10:20.901Z,3.20
2023-02-19T19:12:48.222Z,3.20
2023-02-19T19:15:18.053Z,3.20
2023-02-19T19:17:46.080Z,2.70
2023-02-19T19:20:13.190Z,3.00
2023-02-19T19:22:40.126Z,3.40
2023-02-19T19:25:08.208Z,3.10
2023-02-19T19:27:39.953Z,2.70
2023-02-19T19:30:07.538Z,2.80
2023-02-19T19:32:34.306Z,3.00
2023-02-19T19:35:01.022Z,3.10
2023-02-19T19:37:28.770Z,3.60
2023-02-19T19:39:56.565Z,3.10
2023-02-19T19:42:23.367Z,3.50
2023-02-19T19:44:50.085Z,3.60
2023-02-19T19:47:17.074Z,3.00
2023-02-19T19:49:46.614Z,3.10
2023-02-19T19:52:13.318Z,3.00
2023-02-19T19:54:42.534Z,2.60
2023-02-19T19:57:09.372Z,2.90
2023-02-19T19:59:38.549Z,2.70
2023-02-19T20:02:05.798Z,3.00
2023-02-19T20:04:32.552Z,2.40
2023-02-19T20:06:59.697Z,2.70
2023-02-19T20:09:29.935Z,2.70
2023-02-19T20:11:56.645Z,2.20
2023-02-19T20:14:23.735Z,2.40
2023-02-19T20:16:52.456Z,2.60
2023-02-19T20:19:19.653Z,2.40
2023-02-19T20:21:47.233Z,2.60
2023-02-19T20:24:15.462Z,2.70
2023-02-19T20:26:42.499Z,2.70
2023-02-19T20:29:09.895Z,2.90
2023-02-19T20:31:37.835Z,2.40
2023-02-19T20:34:04.975Z,2.80
2023-02-19T20:36:32.180Z,2.30
2023-02-19T20:38:58.927Z,2.40
2023-02-19T20:41:25.824Z,2.80
2023-02-19T20:43:52.612Z,2.30
2023-02-19T20:46:19.686Z,2.50
2023-02-19T20:48:46.375Z,3.10
2023-02-19T20:51:13.241Z,1.90
2023-02-19T20:53:40.835Z,2.20
2023-02-19T20:56:07.486Z,2.00
2023-02-19T20:58:34.629Z,1.90
2023-02-19T21:01:04.817Z,2.00
2023-02-19T21:03:32.488Z,1.80
2023-02-19T21:05:59.317Z,2.10
2023-02-19T21:08:32.804Z,2.20
2023-02-19T21:10:59.698Z,2.30
2023-02-19T21:13:27.613Z,2.20
2023-02-19T21:15:55.756Z,1.80
2023-02-19T21:18:22.743Z,1.80
2023-02-19T21:20:50.207Z,1.80
2023-02-19T21:23:17.278Z,1.90
2023-02-19T21:25:43.839Z,1.80
2023-02-19T21:28:11.955Z,2.00
2023-02-19T21:30:38.820Z,1.80
2023-02-19T21:33:05.741Z,2.00
2023-02-19T21:35:32.819Z,1.90
2023-02-19T21:37:59.734Z,1.90
2023-02-19T21:40:28.462Z,2.40
2023-02-19T21:42:55.669Z,1.60
2023-02-19T21:45:22.740Z,2.00
2023-02-19T21:47:54.512Z,2.20
2023-02-19T21:50:21.834Z,2.30
2023-02-19T21:52:48.665Z,2.90
2023-02-19T21:55:15.648Z,2.20
2023-02-19T21:57:42.600Z,2.30
2023-02-19T22:00:10.946Z,2.10
2023-02-19T22:02:37.833Z,2.40
2023-02-19T22:05:04.880Z,2.10
2023-02-19T22:07:31.914Z,2.10
2023-02-19T22:09:58.642Z,1.70
2023-02-19T22:12:25.427Z,2.00
2023-02-19T22:14:52.711Z,2.20
2023-02-19T22:17:20.113Z,2.20
2023-02-19T22:19:46.984Z,2.00
2023-02-19T22:22:13.694Z,1.80
2023-02-19T22:24:40.376Z,2.20
2023-02-19T22:27:07.119Z,2.50
2023-02-19T22:29:34.184Z,1.80
2023-02-19T22:32:01.698Z,2.00
2023-02-19T22:34:28.982Z,2.00
2023-02-19T22:36:57.438Z,2.10
2023-02-19T22:39:43.918Z,2.10
2023-02-19T22:42:10.639Z,2.00
2023-02-19T22:44:38.566Z,2.00
2023-02-19T22:47:09.941Z,1.90
2023-02-19T22:49:37.972Z,2.10
2023-02-19T22:52:08.235Z,1.80
2023-02-19T22:54:35.563Z,2.20
2023-02-19T22:57:03.360Z,2.20
2023-02-19T22:59:31.103Z,2.40
2023-02-19T23:01:57.792Z,2.10
2023-02-19T23:04:24.932Z,1.80
2023-02-19T23:06:51.804Z,2.20
2023-02-19T23:09:26.723Z,2.00
2023-02-19T23:12:03.881Z,1.80
2023-02-19T23:14:31.955Z,2.10
2023-02-19T23:16:58.633Z,2.00
2023-02-19T23:19:25.652Z,2.10
2023-02-19T23:21:52.561Z,1.60
2023-02-19T23:24:19.460Z,2.10
2023-02-19T23:26:47.898Z,2.00
2023-02-19T23:29:16.062Z,1.90
2023-02-19T23:31:42.796Z,1.90
2023-02-19T23:34:09.770Z,1.50
2023-02-19T23:36:41.890Z,1.90
2023-02-19T23:39:13.398Z,2.20
2023-02-19T23:41:51.314Z,2.30
2023-02-19T23:44:18.307Z,2.20
2023-02-19T23:46:45.004Z,2.00
2023-02-19T23:49:11.886Z,1.80
2023-02-19T23:51:38.725Z,1.80
2023-02-19T23:54:05.545Z,2.20
2023-02-19T23:56:33.098Z,2.00
2023-02-19T23:59:00.012Z,2.10
